Time;durP1;ratioP1;P1;durP2;ratioP2;P2;SDS_P1;SDS_P2;PMS_P1;PMS_P2;Temp;Humidity;BMP_temperature;BMP_pressure;BME280_temperature;BME280_humidity;BME280_pressure;Samples;Min_cycle;Max_cycle;Signal;HPM_P1;HPM_P2
2022/12/01 00:00:56;;;;;;;;;;;;;;;20.41;27.92;98467.13;5022326;28;1548;-75
2022/12/01 00:03:21;;;;;;;;;;;;;;;20.45;27.99;98467.09;5057208;28;953;-75
2022/12/01 00:05:46;;;;;;;;;;;;;;;20.84;27.45;98488.34;5057346;28;912;-74
2022/12/01 00:08:12;;;;;;;;;;;;;;;20.91;27.03;98499.56;5056812;28;979;-74
2022/12/01 00:10:37;;;;;;;;;;;;;;;20.85;27.38;98512.59;5057246;28;987;-75
2022/12/01 00:13:03;;;;;;;;;;;;;;;20.55;27.36;98505.75;5038881;28;975;-74
2022/12/01 00:15:35;;;;;;;;;;;;;;;20.74;26.98;98507.88;5038044;28;1468;-75
2022/12/01 00:18:01;;;;;;;;;;;;;;;20.60;27.53;98505.25;5039703;28;1902;-74
2022/12/01 00:20:26;;;;;;;;;;;;;;;20.68;27.33;98501.13;5039311;28;912;-74
2022/12/01 00:22:52;;;;;;;;;;;;;;;20.79;27.44;98501.75;5056976;28;1087;-74
2022/12/01 00:25:17;;;;;;;;;;;;;;;20.87;27.10;98499.59;5056244;28;1030;-74
2022/12/01 00:27:46;;;;;;;;;;;;;;;20.75;27.33;98498.16;5056563;28;958;-74
2022/12/01 00:30:12;;;;;;;;;;;;;;;20.59;27.46;98506.50;5037027;28;1562;-74
2022/12/01 00:32:37;;;;;;;;;;;;;;;20.62;27.42;98505.63;4994937;28;1072;-75
2022/12/01 00:35:03;;;;;;;;;;;;;;;20.96;27.20;98501.91;4994882;28;1013;-74
2022/12/01 00:37:29;;;;;;;;;;;;;;;20.75;27.46;98505.84;4978672;28;1969;-75
2022/12/01 00:39:54;;;;;;;;;;;;;;;20.84;27.33;98505.34;4978807;28;962;-74
2022/12/01 00:42:20;;;;;;;;;;;;;;;20.91;26.96;98502.38;4978418;28;968;-74
2022/12/01 00:44:46;;;;;;;;;;;;;;;20.29;27.77;98505.25;4994372;28;1695;-74
2022/12/01 00:47:12;;;;;;;;;;;;;;;20.45;27.52;98506.66;4974999;28;1342;-74
2022/12/01 00:49:37;;;;;;;;;;;;;;;20.59;27.60;98497.22;4975441;28;1020;-75
2022/12/01 00:52:03;;;;;;;;;;;;;;;20.57;27.68;98505.31;4975269;28;998;-74
2022/12/01 00:54:30;;;;;;;;;;;;;;;20.67;27.32;98490.22;4975327;28;965;-75
2022/12/01 00:56:57;;;;;;;;;;;;;;;20.83;27.29;98492.38;4972279;28;1966;-74
2022/12/01 00:59:22;;;;;;;;;;;;;;;20.89;27.02;98490.72;4956413;28;1619;-74
2022/12/01 01:01:48;;;;;;;;;;;;;;;20.52;27.21;98481.97;4975271;28;966;-75
2022/12/01 01:04:16;;;;;;;;;;;;;;;20.54;27.26;98481.53;5022346;28;1137;-75
2022/12/01 01:06:45;;;;;;;;;;;;;;;20.21;27.89;98481.16;5036014;28;965;-74
2022/12/01 01:09:10;;;;;;;;;;;;;;;20.49;27.83;98473.53;5035703;28;1001;-75
2022/12/01 01:11:36;;;;;;;;;;;;;;;20.56;27.43;98473.41;5018663;28;1011;-74
2022/12/01 01:14:01;;;;;;;;;;;;;;;20.65;27.19;98473.69;5053359;28;1456;-74
2022/12/01 01:16:27;;;;;;;;;;;;;;;20.98;27.03;98476.78;4994388;28;2150;-74
2022/12/01 01:18:52;;;;;;;;;;;;;;;20.52;27.43;98472.66;4974795;28;975;-74
2022/12/01 01:21:19;;;;;;;;;;;;;;;20.27;27.73;98484.31;4974642;28;1037;-74
2022/12/01 01:23:45;;;;;;;;;;;;;;;20.03;28.27;98480.56;4974841;28;987;-75
2022/12/01 01:26:14;;;;;;;;;;;;;;;20.40;27.75;98493.81;4974714;28;1048;-74
2022/12/01 01:28:40;;;;;;;;;;;;;;;20.54;27.41;98475.88;4974742;28;944;-74
2022/12/01 01:31:08;;;;;;;;;;;;;;;20.57;27.47;98475.00;4975240;28;1682;-75
2022/12/01 01:33:34;;;;;;;;;;;;;;;20.62;27.23;98479.38;4997580;28;1033;-75
2022/12/01 01:35:59;;;;;;;;;;;;;;;20.76;27.17;98477.13;5013413;28;1068;-74
2022/12/01 01:38:25;;;;;;;;;;;;;;;20.47;27.05;98476.78;5011338;28;1926;-74
2022/12/01 01:40:50;;;;;;;;;;;;;;;20.37;27.36;98476.91;5013678;28;915;-74
2022/12/01 01:43:16;;;;;;;;;;;;;;;20.09;27.94;98476.06;5013807;28;995;-74
2022/12/01 01:45:42;;;;;;;;;;;;;;;20.36;27.52;98480.94;4994859;28;1493;-74
2022/12/01 01:48:08;;;;;;;;;;;;;;;20.60;27.13;98474.16;5046607;28;936;-75
2022/12/01 01:50:33;;;;;;;;;;;;;;;20.64;27.21;98474.91;5004176;28;998;-74
2022/12/01 01:53:02;;;;;;;;;;;;;;;20.67;26.90;98479.69;5038056;28;970;-75
2022/12/01 01:55:28;;;;;;;;;;;;;;;20.70;26.81;98467.53;5037854;28;956;-75
2022/12/01 01:57:53;;;;;;;;;;;;;;;20.75;27.05;98475.53;5055273;28;1983;-74
2022/12/01 02:00:19;;;;;;;;;;;;;;;20.74;26.94;98470.31;5053671;28;1472;-75
2022/12/01 02:02:45;;;;;;;;;;;;;;;20.49;27.10;98468.66;5021627;28;1473;-74
2022/12/01 02:05:16;;;;;;;;;;;;;;;20.14;27.56;98469.94;5037883;28;1082;-75
2022/12/01 02:07:41;;;;;;;;;;;;;;;20.02;27.67;98462.03;5037699;28;957;-74
2022/12/01 02:10:07;;;;;;;;;;;;;;;20.17;27.69;98463.44;5037645;28;950;-74
2022/12/01 02:12:51;;;;;;;;;;;;;;;20.38;27.27;98450.25;5037767;28;993;-74
2022/12/01 02:15:26;;;;;;;;;;;;;;;20.70;26.63;98449.78;5054948;28;1595;-74
2022/12/01 02:18:03;;;;;;;;;;;;;;;20.60;26.82;98457.19;5035245;28;1978;-74
2022/12/01 02:20:49;;;;;;;;;;;;;;;20.67;26.76;98448.59;5040166;28;1400;-74
2022/12/01 02:23:21;;;;;;;;;;;;;;;20.76;26.58;98445.25;4958094;28;1046;-74
2022/12/01 02:26:05;;;;;;;;;;;;;;;20.66;26.88;98441.34;4974299;28;1090;-74
2022/12/01 02:28:38;;;;;;;;;;;;;;;20.30;27.14;98436.19;4935659;29;1607;-75
2022/12/01 02:31:29;;;;;;;;;;;;;;;20.30;27.34;98436.19;4935867;29;1035;-74
2022/12/01 02:33:58;;;;;;;;;;;;;;;20.44;27.00;98440.06;4879192;29;1106;-74
2022/12/01 02:36:30;;;;;;;;;;;;;;;20.54;27.12;98436.31;4861762;29;1911;-74
2022/12/01 02:38:57;;;;;;;;;;;;;;;20.67;26.54;98436.50;4879140;29;1135;-75
2022/12/01 02:41:23;;;;;;;;;;;;;;;20.70;26.53;98422.31;4863543;29;1025;-75
2022/12/01 02:43:48;;;;;;;;;;;;;;;20.61;26.97;98419.22;4878717;29;1076;-75
2022/12/01 02:46:14;;;;;;;;;;;;;;;20.72;26.58;98424.69;4879028;29;952;-74
2022/12/01 02:48:43;;;;;;;;;;;;;;;20.76;26.40;98426.25;4863772;29;1053;-74
2022/12/01 02:51:16;;;;;;;;;;;;;;;20.18;27.43;98424.69;4849918;29;1747;-75
2022/12/01 02:53:42;;;;;;;;;;;;;;;20.18;27.17;98436.00;4866327;29;1037;-74
2022/12/01 02:56:11;;;;;;;;;;;;;;;20.27;27.56;98428.59;4882372;29;1014;-75
2022/12/01 02:58:37;;;;;;;;;;;;;;;20.47;27.07;98430.75;4870531;29;1907;-75
2022/12/01 03:01:05;;;;;;;;;;;;;;;20.53;26.85;98427.03;4964864;28;1024;-74
2022/12/01 03:03:32;;;;;;;;;;;;;;;20.64;26.91;98429.69;4977170;28;995;-75
2022/12/01 03:06:01;;;;;;;;;;;;;;;20.85;26.62;98430.56;4961172;28;991;-74
2022/12/01 03:08:36;;;;;;;;;;;;;;;20.85;26.46;98422.06;4961124;28;957;-74
2022/12/01 03:11:01;;;;;;;;;;;;;;;20.39;26.84;98423.56;5028199;28;1046;-74
2022/12/01 03:13:28;;;;;;;;;;;;;;;20.36;27.33;98419.56;5025424;28;1431;-75
2022/12/01 03:15:59;;;;;;;;;;;;;;;20.46;27.03;98424.28;5038315;28;1208;-75
2022/12/01 03:18:34;;;;;;;;;;;;;;;20.29;27.27;98412.00;5038196;28;1906;-74
2022/12/01 03:21:13;;;;;;;;;;;;;;;20.60;26.88;98411.97;5038060;28;895;-74
2022/12/01 03:23:50;;;;;;;;;;;;;;;20.59;26.80;98418.84;5020403;28;977;-75
2022/12/01 03:26:17;;;;;;;;;;;;;;;20.86;26.58;98423.66;5004212;28;1138;-74
2022/12/01 03:28:45;;;;;;;;;;;;;;;20.47;27.05;98416.63;5036601;28;1594;-75
2022/12/01 03:31:11;;;;;;;;;;;;;;;20.45;27.06;98421.88;5040325;28;958;-74
2022/12/01 03:33:42;;;;;;;;;;;;;;;20.39;26.85;98420.75;5040067;28;920;-75
2022/12/01 03:36:07;;;;;;;;;;;;;;;20.57;27.05;98418.47;5040060;28;1350;-74
2022/12/01 03:38:34;;;;;;;;;;;;;;;20.59;26.79;98421.69;5057747;28;1971;-74
2022/12/01 03:41:01;;;;;;;;;;;;;;;20.69;26.79;98409.41;5037009;28;1509;-74
2022/12/01 03:43:36;;;;;;;;;;;;;;;20.68;26.62;98424.78;5020315;28;937;-74
2022/12/01 03:46:28;;;;;;;;;;;;;;;20.97;26.46;98425.06;5019971;28;901;-74
2022/12/01 03:48:53;;;;;;;;;;;;;;;20.32;27.31;98423.69;4995909;28;924;-74
2022/12/01 03:51:24;;;;;;;;;;;;;;;20.11;27.22;98425.59;4979705;28;999;-74
2022/12/01 03:53:51;;;;;;;;;;;;;;;20.55;26.98;98426.59;4995576;28;1061;-74
2022/12/01 03:56:18;;;;;;;;;;;;;;;20.63;26.88;98430.91;4994879;28;1587;-74
2022/12/01 03:58:44;;;;;;;;;;;;;;;20.72;26.76;98431.16;4995726;28;1028;-74
2022/12/01 04:01:09;;;;;;;;;;;;;;;20.81;26.48;98439.88;4995971;28;980;-75
2022/12/01 04:03:35;;;;;;;;;;;;;;;20.87;26.32;98436.56;4995923;28;1316;-74
2022/12/01 04:06:00;;;;;;;;;;;;;;;20.60;26.36;98437.41;4995552;28;1018;-74
2022/12/01 04:08:26;;;;;;;;;;;;;;;20.35;26.84;98434.94;4995582;28;977;-74
2022/12/01 04:10:51;;;;;;;;;;;;;;;20.34;27.28;98435.34;5014503;28;1473;-74
2022/12/01 04:13:22;;;;;;;;;;;;;;;20.51;26.79;98437.94;4998421;28;1576;-74
2022/12/01 04:15:49;;;;;;;;;;;;;;;20.60;26.62;98433.78;5014672;28;1077;-75
2022/12/01 04:18:14;;;;;;;;;;;;;;;20.66;26.63;98432.88;4998396;28;1917;-74
2022/12/01 04:20:42;;;;;;;;;;;;;;;20.77;26.32;98432.69;5014817;28;992;-74
2022/12/01 04:23:07;;;;;;;;;;;;;;;20.80;26.22;98429.81;5015197;28;961;-75
2022/12/01 04:25:32;;;;;;;;;;;;;;;20.31;26.94;98434.16;4997129;28;2497;-74
2022/12/01 04:27:58;;;;;;;;;;;;;;;20.24;26.95;98429.44;5014538;28;862;-75
2022/12/01 04:30:23;;;;;;;;;;;;;;;20.60;26.84;98437.41;5026250;28;1528;-74
2022/12/01 04:32:49;;;;;;;;;;;;;;;20.60;26.72;98422.47;5036573;28;1561;-74
2022/12/01 04:35:14;;;;;;;;;;;;;;;20.60;26.64;98422.47;5054249;28;989;-74
2022/12/01 04:37:39;;;;;;;;;;;;;;;20.69;26.39;98426.38;5054037;28;1988;-74
2022/12/01 04:40:05;;;;;;;;;;;;;;;20.85;26.25;98422.06;5054312;28;938;-75
2022/12/01 04:42:31;;;;;;;;;;;;;;;20.47;26.41;98427.94;5054169;28;964;-74
2022/12/01 04:44:56;;;;;;;;;;;;;;;20.26;26.66;98426.16;5037831;28;1045;-75
2022/12/01 04:47:22;;;;;;;;;;;;;;;20.07;27.06;98419.19;5020132;28;1771;-74
2022/12/01 04:49:47;;;;;;;;;;;;;;;20.40;26.59;98417.50;5038575;28;928;-75
2022/12/01 04:52:13;;;;;;;;;;;;;;;20.75;26.36;98407.69;5038977;28;952;-74
2022/12/01 04:54:38;;;;;;;;;;;;;;;20.73;26.36;98410.16;5056315;28;952;-74
2022/12/01 04:57:03;;;;;;;;;;;;;;;20.64;26.12;98406.25;5038487;28;1918;-74
2022/12/01 04:59:29;;;;;;;;;;;;;;;20.72;26.26;98404.91;5054279;28;1555;-75
2022/12/01 05:01:54;;;;;;;;;;;;;;;20.53;25.95;98410.06;5035289;28;1717;-74
2022/12/01 05:04:20;;;;;;;;;;;;;;;20.40;26.42;98406.19;5018346;28;928;-74
2022/12/01 05:06:45;;;;;;;;;;;;;;;20.27;26.81;98403.16;5035866;28;1898;-74
2022/12/01 05:09:11;;;;;;;;;;;;;;;20.45;26.75;98407.72;5036237;28;918;-74
2022/12/01 05:11:37;;;;;;;;;;;;;;;20.79;25.98;98407.63;5035928;28;911;-74
2022/12/01 05:14:02;;;;;;;;;;;;;;;20.86;25.74;98409.53;5036127;28;983;-74
2022/12/01 05:16:28;;;;;;;;;;;;;;;20.81;26.00;98408.78;5036366;28;1879;-74
2022/12/01 05:20:55;;;;;;;;;;;;;;;20.79;25.90;98402.75;5019258;28;990;-75
2022/12/01 05:21:41;;;;;;;;;;;;;;;20.36;26.30;98413.13;5016190;28;904;-74
2022/12/01 05:24:07;;;;;;;;;;;;;;;20.20;26.65;98405.28;5016810;28;1040;-74
2022/12/01 05:26:32;;;;;;;;;;;;;;;20.44;26.74;98404.09;4997794;28;1114;-74
2022/12/01 05:28:57;;;;;;;;;;;;;;;20.59;26.16;98401.88;5016278;28;880;-74
2022/12/01 05:31:23;;;;;;;;;;;;;;;20.81;26.10;98391.00;5016202;28;1011;-74
2022/12/01 05:33:48;;;;;;;;;;;;;;;20.83;25.72;98404.72;5016624;28;932;-75
2022/12/01 05:36:14;;;;;;;;;;;;;;;20.70;25.96;98396.84;5038174;28;1047;-74
2022/12/01 05:38:39;;;;;;;;;;;;;;;21.03;25.66;98411.22;5035998;28;1981;-74
2022/12/01 05:41:04;;;;;;;;;;;;;;;20.50;26.21;98407.28;5035791;28;1020;-74
2022/12/01 05:43:30;;;;;;;;;;;;;;;20.46;26.10;98406.50;5035753;28;1140;-74
2022/12/01 05:45:55;;;;;;;;;;;;;;;20.62;26.03;98406.66;5034878;28;967;-75
2022/12/01 05:48:21;;;;;;;;;;;;;;;20.47;26.25;98416.63;5034437;28;809;-75
2022/12/01 05:50:46;;;;;;;;;;;;;;;20.51;26.07;98412.50;5035604;28;850;-75
2022/12/01 05:53:12;;;;;;;;;;;;;;;20.67;25.81;98411.84;5048532;28;1002;-75
2022/12/01 05:55:37;;;;;;;;;;;;;;;20.74;25.86;98420.22;5038070;28;779;-75
2022/12/01 05:58:03;;;;;;;;;;;;;;;20.83;25.60;98418.84;5055805;28;1983;-75
2022/12/01 06:00:28;;;;;;;;;;;;;;;20.72;25.80;98422.66;5055566;28;888;-75
2022/12/01 06:02:54;;;;;;;;;;;;;;;20.26;26.56;98423.34;5050474;28;1177;-75
2022/12/01 06:05:19;;;;;;;;;;;;;;;20.20;26.57;98423.03;5027381;28;1582;-74
2022/12/01 06:07:45;;;;;;;;;;;;;;;20.30;26.43;98422.06;5040592;28;1412;-74
2022/12/01 06:10:10;;;;;;;;;;;;;;;20.64;26.34;98417.56;5040450;28;1326;-75
2022/12/01 06:12:36;;;;;;;;;;;;;;;20.76;25.67;98414.94;5010770;28;1475;-75
2022/12/01 06:15:01;;;;;;;;;;;;;;;20.80;25.87;98420.53;5013129;28;1290;-74
2022/12/01 06:17:27;;;;;;;;;;;;;;;20.81;25.70;98422.91;5012625;28;1918;-75
2022/12/01 06:19:52;;;;;;;;;;;;;;;20.93;25.72;98429.19;5012938;28;1155;-74
2022/12/01 06:22:18;;;;;;;;;;;;;;;20.57;26.13;98429.78;5012894;28;1132;-74
2022/12/01 06:24:43;;;;;;;;;;;;;;;20.37;26.33;98426.84;5014932;28;1295;-75
2022/12/01 06:27:08;;;;;;;;;;;;;;;20.58;25.94;98425.75;5000770;28;1049;-74
2022/12/01 06:29:34;;;;;;;;;;;;;;;20.50;26.10;98413.72;5017297;28;1095;-74
2022/12/01 06:31:59;;;;;;;;;;;;;;;20.59;26.11;98404.72;5016970;28;999;-74
2022/12/01 06:34:25;;;;;;;;;;;;;;;20.66;25.92;98404.59;5017198;28;994;-74
2022/12/01 06:36:50;;;;;;;;;;;;;;;20.78;25.68;98409.66;5016725;28;1906;-74
2022/12/01 06:39:16;;;;;;;;;;;;;;;20.76;25.96;98400.00;5016766;28;1178;-74
2022/12/01 06:41:41;;;;;;;;;;;;;;;20.30;26.28;98405.13;5016460;28;1103;-74
2022/12/01 06:44:07;;;;;;;;;;;;;;;20.34;26.40;98392.97;5038637;28;1270;-74
2022/12/01 06:46:32;;;;;;;;;;;;;;;20.42;26.42;98389.63;5047613;28;1225;-74
2022/12/01 06:48:58;;;;;;;;;;;;;;;20.64;26.12;98394.94;5047351;28;1214;-74
2022/12/01 06:51:23;;;;;;;;;;;;;;;20.76;26.02;98394.34;5037962;28;1331;-74
2022/12/01 06:53:55;;;;;;;;;;;;;;;20.81;25.79;98385.34;5049047;28;1198;-74
2022/12/01 06:56:20;;;;;;;;;;;;;;;20.76;25.90;98383.03;5044200;28;1254;-74
2022/12/01 06:58:46;;;;;;;;;;;;;;;20.45;25.96;98387.94;5029428;28;1914;-74
2022/12/01 07:01:11;;;;;;;;;;;;;;;20.23;26.58;98399.56;5044615;28;1269;-74
2022/12/01 07:03:37;;;;;;;;;;;;;;;20.37;26.22;98397.78;5030546;28;1210;-75
2022/12/01 07:06:03;;;;;;;;;;;;;;;20.42;26.10;98395.28;5028939;28;1296;-75
2022/12/01 07:08:28;;;;;;;;;;;;;;;20.67;26.09;98406.19;5032597;28;1301;-74
2022/12/01 07:11:01;;;;;;;;;;;;;;;20.56;25.93;98405.56;5045951;28;1297;-75
2022/12/01 07:13:26;;;;;;;;;;;;;;;20.68;25.84;98407.81;5052292;28;1231;-74
2022/12/01 07:15:52;;;;;;;;;;;;;;;20.77;25.75;98402.38;5039291;28;1048;-75
2022/12/01 07:18:17;;;;;;;;;;;;;;;20.53;25.68;98414.91;5044242;28;1902;-74
2022/12/01 07:20:42;;;;;;;;;;;;;;;20.17;26.43;98412.59;5055457;28;1288;-74
2022/12/01 07:23:08;;;;;;;;;;;;;;;20.22;26.29;98409.28;5055921;28;949;-74
2022/12/01 07:25:33;;;;;;;;;;;;;;;20.56;25.99;98411.22;5036176;28;1122;-74
2022/12/01 07:27:59;;;;;;;;;;;;;;;20.46;26.02;98406.50;5057714;28;979;-74
2022/12/01 07:30:24;;;;;;;;;;;;;;;20.64;25.82;98406.25;5057743;28;1056;-74
2022/12/01 07:32:50;;;;;;;;;;;;;;;20.81;25.77;98410.81;5057872;28;882;-74
2022/12/01 07:35:15;;;;;;;;;;;;;;;20.79;25.50;98407.63;5057353;28;1363;-74
2022/12/01 07:37:40;;;;;;;;;;;;;;;20.21;26.22;98402.03;5052648;28;1898;-74
2022/12/01 07:40:06;;;;;;;;;;;;;;;20.24;26.46;98406.81;5030396;28;1210;-74
2022/12/01 07:42:32;;;;;;;;;;;;;;;20.38;26.44;98403.00;5046759;28;1250;-75
2022/12/01 07:44:57;;;;;;;;;;;;;;;20.37;26.49;98397.78;5047569;28;1059;-74
2022/12/01 07:47:22;;;;;;;;;;;;;;;20.59;26.12;98399.06;5047314;28;1289;-74
2022/12/01 07:49:48;;;;;;;;;;;;;;;20.97;25.40;98396.00;5042626;28;1193;-77
2022/12/01 07:52:13;;;;;;;;;;;;;;;21.26;25.03;98397.06;5042740;28;1082;-75
2022/12/01 07:54:39;;;;;;;;;;;;;;;20.96;25.30;98391.56;5037600;28;968;-75
2022/12/01 07:57:04;;;;;;;;;;;;;;;20.86;25.69;98389.72;5040125;28;1981;-76
2022/12/01 07:59:30;;;;;;;;;;;;;;;20.75;25.74;98390.72;5047776;28;1336;-77
2022/12/01 08:01:55;;;;;;;;;;;;;;;20.85;26.14;98385.31;5043815;28;1229;-77
2022/12/01 08:04:20;;;;;;;;;;;;;;;21.19;25.37;98380.25;5046995;28;1512;-77
2022/12/01 08:06:46;;;;;;;;;;;;;;;20.91;26.00;98375.88;5047569;28;1249;-76
2022/12/01 08:09:11;;;;;;;;;;;;;;;20.90;26.11;98381.97;5046047;28;1248;-77
2022/12/01 08:11:37;;;;;;;;;;;;;;;20.34;26.59;98387.31;5047654;28;1189;-76
2022/12/01 08:14:02;;;;;;;;;;;;;;;20.60;26.37;98389.34;5047017;28;1222;-76
2022/12/01 08:16:28;;;;;;;;;;;;;;;21.01;26.29;98374.09;5045748;28;1229;-77
2022/12/01 08:18:53;;;;;;;;;;;;;;;21.11;26.05;98378.75;5045455;28;1996;-76
2022/12/01 08:21:20;;;;;;;;;;;;;;;21.05;26.12;98386.94;5046354;28;1361;-77
2022/12/01 08:23:45;;;;;;;;;;;;;;;20.68;26.18;98376.69;5045119;28;1306;-72
2022/12/01 08:26:15;;;;;;;;;;;;;;;20.39;26.77;98381.19;5047684;28;1315;-77
2022/12/01 08:28:40;;;;;;;;;;;;;;;20.40;26.70;98379.94;5028450;28;1226;-75
2022/12/01 08:31:20;;;;;;;;;;;;;;;20.55;26.80;98375.69;5045599;28;1295;-78
2022/12/01 08:33:46;;;;;;;;;;;;;;;21.02;26.16;98387.00;5047516;28;1158;-76
2022/12/01 08:36:11;;;;;;;;;;;;;;;21.08;26.00;98382.44;5046343;28;1296;-76
2022/12/01 08:38:37;;;;;;;;;;;;;;;20.65;26.64;98382.41;5043641;28;1910;-77
2022/12/01 08:41:03;;;;;;;;;;;;;;;20.47;26.77;98377.06;5046413;28;1213;-77
2022/12/01 08:43:29;;;;;;;;;;;;;;;21.06;26.05;98371.56;5029414;28;1315;-77
2022/12/01 08:45:58;;;;;;;;;;;;;;;21.73;25.27;98371.50;5047232;28;1414;-76
2022/12/01 08:48:23;;;;;;;;;;;;;;;21.96;24.96;98375.44;5028125;28;1421;-76
2022/12/01 08:50:49;;;;;;;;;;;;;;;21.49;25.41;98375.63;5054100;28;1277;-76
2022/12/01 08:53:14;;;;;;;;;;;;;;;21.17;26.31;98373.41;5053475;28;1123;-76
2022/12/01 08:55:40;;;;;;;;;;;;;;;21.26;25.89;98368.78;5056098;28;866;-78
2022/12/01 08:58:05;;;;;;;;;;;;;;;21.13;26.27;98364.97;5053289;28;1898;-77
2022/12/01 09:00:30;;;;;;;;;;;;;;;21.31;26.11;98359.81;5054754;28;917;-76
2022/12/01 09:02:56;;;;;;;;;;;;;;;21.04;26.31;98368.38;5050270;28;1102;-76
2022/12/01 09:05:21;;;;;;;;;;;;;;;21.21;26.34;98355.13;5053335;28;1205;-76
2022/12/01 09:08:29;;;;;;;;;;;;;;;20.88;26.75;98362.63;5056179;28;926;-75
2022/12/01 09:10:32;;;;;;;;;;;;;;;21.76;25.44;98364.97;5056074;28;888;-76
2022/12/01 09:12:58;;;;;;;;;;;;;;;21.95;25.29;98362.53;5055026;28;1169;-76
2022/12/01 09:15:23;;;;;;;;;;;;;;;21.76;25.46;98350.81;5055951;28;1160;-76
2022/12/01 09:17:48;;;;;;;;;;;;;;;21.19;26.23;98357.59;5056396;28;1906;-75
2022/12/01 09:20:14;;;;;;;;;;;;;;;21.10;26.54;98354.53;5056068;28;929;-75
2022/12/01 09:22:39;;;;;;;;;;;;;;;21.32;26.19;98361.41;5052508;28;1251;-75
2022/12/01 09:25:07;;;;;;;;;;;;;;;20.87;26.75;98363.03;5056117;28;930;-71
2022/12/01 09:27:32;;;;;;;;;;;;;;;20.84;26.80;98364.72;5055380;28;960;-78
2022/12/01 09:29:57;;;;;;;;;;;;;;;20.75;27.31;98362.44;5056266;28;958;-77
2022/12/01 09:32:23;;;;;;;;;;;;;;;20.49;27.45;98354.81;5053804;28;1058;-78
2022/12/01 09:34:48;;;;;;;;;;;;;;;20.59;27.18;98362.31;5055770;28;949;-76
2022/12/01 09:37:14;;;;;;;;;;;;;;;20.34;27.32;98336.44;5055293;28;1967;-69
2022/12/01 09:39:39;;;;;;;;;;;;;;;20.86;26.64;98361.44;5056099;28;958;-70
2022/12/01 09:42:06;;;;;;;;;;;;;;;20.74;26.70;98349.53;5055844;28;907;-77
2022/12/01 09:44:34;;;;;;;;;;;;;;;20.65;26.88;98340.78;5038284;28;841;-78
2022/12/01 09:47:17;;;;;;;;;;;;;;;20.48;26.94;98337.06;5021438;28;906;-77
2022/12/01 09:49:46;;;;;;;;;;;;;;;20.35;27.30;98338.03;5037938;28;891;-77
2022/12/01 09:52:13;;;;;;;;;;;;;;;20.30;27.22;98320.34;5037750;28;917;-76
2022/12/01 09:54:39;;;;;;;;;;;;;;;20.50;27.06;98334.56;5021540;28;931;-77
2022/12/01 09:57:05;;;;;;;;;;;;;;;20.60;27.06;98332.00;5037747;28;1981;-77
2022/12/01 09:59:31;;;;;;;;;;;;;;;20.61;26.70;98328.75;5041102;28;1080;-77
2022/12/01 10:02:00;;;;;;;;;;;;;;;20.35;27.22;98315.44;4998063;28;1029;-77
2022/12/01 10:04:26;;;;;;;;;;;;;;;20.36;27.11;98322.69;4998023;28;1022;-76
2022/12/01 10:06:54;;;;;;;;;;;;;;;20.39;27.27;98327.47;4998041;28;974;-76
2022/12/01 10:09:43;;;;;;;;;;;;;;;20.51;27.26;98321.25;4997879;28;919;-75
2022/12/01 10:12:18;;;;;;;;;;;;;;;20.65;26.89;98301.22;4939614;29;1175;-75
2022/12/01 10:14:45;;;;;;;;;;;;;;;20.65;26.73;98312.50;4939885;29;1052;-75
2022/12/01 10:17:16;;;;;;;;;;;;;;;20.50;26.86;98294.22;4934644;29;1998;-75
2022/12/01 10:19:41;;;;;;;;;;;;;;;20.27;27.10;98301.44;4959018;28;954;-76
2022/12/01 10:22:16;;;;;;;;;;;;;;;20.29;27.08;98301.78;4958878;29;926;-75
2022/12/01 10:24:52;;;;;;;;;;;;;;;20.67;26.73;98295.13;4958530;29;913;-76
2022/12/01 10:27:36;;;;;;;;;;;;;;;20.56;26.87;98298.13;4958895;29;967;-76
2022/12/01 10:30:05;;;;;;;;;;;;;;;20.62;26.63;98301.25;4958469;29;1494;-77
2022/12/01 10:32:49;;;;;;;;;;;;;;;20.73;26.71;98282.91;4939637;29;992;-76
2022/12/01 10:35:15;;;;;;;;;;;;;;;20.76;26.57;98301.00;4939409;29;1048;-76
2022/12/01 10:37:41;;;;;;;;;;;;;;;20.43;26.86;98294.31;4939307;29;1911;-76
2022/12/01 10:40:10;;;;;;;;;;;;;;;20.25;27.11;98284.09;4939345;29;1604;-76
2022/12/01 10:42:40;;;;;;;;;;;;;;;20.29;27.28;98289.69;4939256;29;1134;-76
2022/12/01 10:45:08;;;;;;;;;;;;;;;20.34;27.14;98288.41;4939600;29;993;-76
2022/12/01 10:47:34;;;;;;;;;;;;;;;20.45;27.03;98291.84;4939276;29;961;-76
2022/12/01 10:49:59;;;;;;;;;;;;;;;20.69;26.72;98273.66;5005078;28;1058;-76
2022/12/01 10:52:32;;;;;;;;;;;;;;;20.53;26.78;98284.88;5000303;28;988;-76
2022/12/01 10:54:57;;;;;;;;;;;;;;;20.22;27.46;98284.97;5000485;28;1018;-77
2022/12/01 10:57:23;;;;;;;;;;;;;;;20.03;27.58;98286.47;4996816;28;1973;-76
2022/12/01 10:59:51;;;;;;;;;;;;;;;20.29;27.03;98279.19;4980976;28;882;-76
2022/12/01 11:02:20;;;;;;;;;;;;;;;20.51;26.81;98267.53;4980772;28;994;-76
2022/12/01 11:04:56;;;;;;;;;;;;;;;20.59;26.67;98260.53;5019521;28;961;-76
2022/12/01 11:07:24;;;;;;;;;;;;;;;20.72;26.58;98260.69;5020012;28;894;-76
2022/12/01 11:10:03;;;;;;;;;;;;;;;20.47;26.76;98272.47;5018747;28;1241;-76
2022/12/01 11:12:29;;;;;;;;;;;;;;;20.03;27.37;98265.91;5035987;28;1001;-76
2022/12/01 11:14:54;;;;;;;;;;;;;;;20.39;26.92;98285.09;5019727;28;978;-76
2022/12/01 11:17:25;;;;;;;;;;;;;;;20.43;26.90;98277.34;5036150;28;1981;-77
2022/12/01 11:19:51;;;;;;;;;;;;;;;20.48;27.01;98282.53;5036163;28;949;-77
2022/12/01 11:22:26;;;;;;;;;;;;;;;20.65;26.49;98277.78;5019324;28;947;-77
2022/12/01 11:24:51;;;;;;;;;;;;;;;20.33;27.01;98286.81;5019553;28;1077;-77
2022/12/01 11:27:18;;;;;;;;;;;;;;;20.29;26.95;98284.84;5037981;28;938;-76
2022/12/01 11:29:45;;;;;;;;;;;;;;;20.46;27.03;98287.78;5060492;28;947;-76
2022/12/01 11:32:29;;;;;;;;;;;;;;;20.56;26.86;98275.53;5060383;28;942;-76
2022/12/01 11:35:05;;;;;;;;;;;;;;;20.58;26.69;98278.72;5060230;28;960;-76
2022/12/01 11:37:37;;;;;;;;;;;;;;;20.39;26.63;98285.09;5059726;28;1969;-76
2022/12/01 11:40:07;;;;;;;;;;;;;;;20.51;26.71;98282.47;5077920;28;965;-76
2022/12/01 11:42:33;;;;;;;;;;;;;;;20.18;27.03;98278.56;5078140;28;931;-77
2022/12/01 11:45:06;;;;;;;;;;;;;;;20.35;27.22;98276.66;5060097;28;855;-76
2022/12/01 11:47:32;;;;;;;;;;;;;;;20.43;26.83;98285.84;5059629;28;870;-77
2022/12/01 11:49:58;;;;;;;;;;;;;;;20.59;26.79;98285.97;5077946;28;906;-77
2022/12/01 11:52:35;;;;;;;;;;;;;;;20.62;26.52;98284.31;5060027;28;935;-77
2022/12/01 11:55:10;;;;;;;;;;;;;;;20.40;26.93;98290.31;5059660;28;920;-77
2022/12/01 11:57:36;;;;;;;;;;;;;;;20.06;27.19;98287.66;5077762;28;1971;-77
2022/12/01 12:00:10;;;;;;;;;;;;;;;20.14;27.16;98282.69;5059492;28;922;-78
2022/12/01 12:02:46;;;;;;;;;;;;;;;20.49;26.97;98278.47;5059714;28;1320;-75
2022/12/01 12:05:24;;;;;;;;;;;;;;;20.60;26.77;98281.13;5059380;28;877;-78
2022/12/01 12:07:55;;;;;;;;;;;;;;;20.56;26.87;98286.81;5071127;28;1560;-77
2022/12/01 12:10:29;;;;;;;;;;;;;;;20.48;26.75;98296.69;5019416;28;1221;-77
2022/12/01 12:12:57;;;;;;;;;;;;;;;20.37;27.06;98290.38;5015537;28;927;-77
2022/12/01 12:15:23;;;;;;;;;;;;;;;20.12;27.38;98280.28;5015257;28;907;-77
2022/12/01 12:17:54;;;;;;;;;;;;;;;20.27;27.19;98275.19;5015516;28;1902;-77
2022/12/01 12:20:39;;;;;;;;;;;;;;;20.40;27.14;98289.50;5014959;28;961;-76
2022/12/01 12:23:15;;;;;;;;;;;;;;;20.71;26.39;98288.16;5015366;28;1036;-77
2022/12/01 12:25:43;;;;;;;;;;;;;;;20.68;26.62;98294.69;4999002;28;999;-77
2022/12/01 12:28:18;;;;;;;;;;;;;;;20.32;26.97;98296.53;5016605;28;1218;-77
2022/12/01 12:30:49;;;;;;;;;;;;;;;20.23;27.06;98291.41;5026382;28;1253;-78
2022/12/01 12:33:25;;;;;;;;;;;;;;;20.03;27.53;98294.94;5026260;28;1317;-77
2022/12/01 12:36:13;;;;;;;;;;;;;;;20.38;27.02;98300.44;5034635;28;1510;-78
2022/12/01 12:38:39;;;;;;;;;;;;;;;20.56;26.50;98303.78;5034495;28;1902;-78
2022/12/01 12:41:10;;;;;;;;;;;;;;;20.61;26.54;98282.72;5043681;28;948;-77
2022/12/01 12:43:39;;;;;;;;;;;;;;;20.72;26.51;98277.66;5057289;28;1108;-77
2022/12/01 12:46:04;;;;;;;;;;;;;;;20.67;26.39;98278.94;5057033;28;854;-77
2022/12/01 12:48:42;;;;;;;;;;;;;;;20.61;26.64;98277.06;5057514;28;918;-77
2022/12/01 12:51:07;;;;;;;;;;;;;;;20.58;26.36;98273.06;5056596;28;879;-77
2022/12/01 12:53:35;;;;;;;;;;;;;;;20.53;26.67;98282.06;5056598;28;851;-77
2022/12/01 12:56:01;;;;;;;;;;;;;;;20.61;26.51;98271.41;5055278;28;1001;-77
2022/12/01 12:58:45;;;;;;;;;;;;;;;20.52;26.63;98260.63;5055676;28;1906;-77
2022/12/01 13:01:14;;;;;;;;;;;;;;;20.57;26.67;98257.31;5056677;28;896;-77
2022/12/01 13:03:58;;;;;;;;;;;;;;;20.59;26.47;98245.59;5056298;28;874;-77